createdAt,value
2023-05-13T00:00:25.371Z,4.28
2023-05-13T00:02:52.297Z,4.40
2023-05-13T00:05:18.713Z,4.38
2023-05-13T00:07:45.114Z,4.38
2023-05-13T00:10:11.869Z,4.72
2023-05-13T00:12:38.262Z,4.43
2023-05-13T00:15:05.154Z,4.50
2023-05-13T00:17:31.574Z,4.55
2023-05-13T00:19:58.067Z,4.50
2023-05-13T00:22:24.475Z,4.88
2023-05-13T00:24:50.881Z,4.28
2023-05-13T00:27:17.235Z,4.57
2023-05-13T00:29:43.630Z,4.50
2023-05-13T00:32:10.042Z,4.43
2023-05-13T00:34:36.400Z,4.68
2023-05-13T00:37:02.866Z,4.43
2023-05-13T00:39:29.285Z,4.68
2023-05-13T00:41:55.760Z,4.20
2023-05-13T00:44:22.195Z,4.40
2023-05-13T00:46:49.777Z,4.35
2023-05-13T00:49:16.386Z,4.65
2023-05-13T00:51:43.087Z,4.55
2023-05-13T00:54:09.449Z,4.70
2023-05-13T00:56:38.128Z,4.95
2023-05-13T00:59:04.875Z,4.80
2023-05-13T01:01:50.417Z,4.72
2023-05-13T01:04:36.542Z,4.90
2023-05-13T01:07:25.448Z,4.28
2023-05-13T01:10:13.548Z,4.43
2023-05-13T01:12:45.225Z,4.75
2023-05-13T01:15:15.766Z,4.68
2023-05-13T01:17:50.522Z,5.05
2023-05-13T01:20:22.453Z,4.72
2023-05-13T01:22:49.683Z,4.60
2023-05-13T01:25:16.422Z,4.72
2023-05-13T01:27:42.829Z,5.30
2023-05-13T01:30:10.192Z,4.20
2023-05-13T01:32:38.098Z,4.40
2023-05-13T01:35:05.990Z,4.38
2023-05-13T01:41:19.305Z,4.80
2023-05-13T01:43:45.730Z,4.57
2023-05-13T01:46:13.242Z,4.60
2023-05-13T01:48:39.663Z,4.60
2023-05-13T01:51:06.601Z,4.32
2023-05-13T01:53:32.957Z,4.50
2023-05-13T01:55:59.615Z,4.80
2023-05-13T01:58:25.973Z,4.35
2023-05-13T02:00:52.348Z,4.63
2023-05-13T02:03:19.152Z,5.20
2023-05-13T02:05:46.721Z,5.20
2023-05-13T02:08:13.131Z,4.50
2023-05-13T02:10:39.637Z,4.82
2023-05-13T02:13:06.042Z,4.88
2023-05-13T02:15:32.399Z,4.90
2023-05-13T02:17:58.799Z,4.50
2023-05-13T02:20:26.365Z,4.70
2023-05-13T02:22:52.731Z,5.00
2023-05-13T02:25:19.166Z,5.13
2023-05-13T02:27:45.522Z,4.90
2023-05-13T02:30:12.841Z,4.72
2023-05-13T02:32:42.759Z,4.85
2023-05-13T02:35:10.288Z,4.95
2023-05-13T02:37:36.857Z,4.90
2023-05-13T02:40:03.475Z,5.00
2023-05-13T02:42:29.890Z,5.47
2023-05-13T02:44:56.237Z,4.78
2023-05-13T02:47:22.794Z,4.90
2023-05-13T02:49:49.217Z,4.55
2023-05-13T02:52:15.590Z,4.63
2023-05-13T02:54:41.976Z,4.38
2023-05-13T02:57:08.384Z,5.38
2023-05-13T02:59:34.755Z,4.70
2023-05-13T03:02:01.114Z,4.85
2023-05-13T03:04:27.468Z,5.10
2023-05-13T03:06:53.835Z,4.68
2023-05-13T03:09:20.331Z,5.00
2023-05-13T03:11:46.955Z,5.30
2023-05-13T03:14:13.329Z,4.78
2023-05-13T03:16:39.791Z,5.15
2023-05-13T03:19:06.253Z,4.65
2023-05-13T03:21:32.706Z,4.88
2023-05-13T03:23:59.093Z,5.13
2023-05-13T03:26:26.021Z,5.13
2023-05-13T03:28:52.379Z,5.05
2023-05-13T03:31:18.820Z,4.65
2023-05-13T03:33:45.227Z,4.63
2023-05-13T03:36:11.599Z,4.97
2023-05-13T03:38:37.968Z,5.20
2023-05-13T03:41:04.340Z,4.95
2023-05-13T03:43:30.724Z,5.70
2023-05-13T03:45:57.166Z,5.00
2023-05-13T03:48:23.546Z,5.13
2023-05-13T03:50:49.952Z,4.88
2023-05-13T03:53:17.190Z,4.88
2023-05-13T03:55:43.554Z,5.28
2023-05-13T03:58:14.738Z,4.97
2023-05-13T04:00:42.286Z,5.20
2023-05-13T04:03:10.546Z,5.00
2023-05-13T04:05:36.982Z,4.75
2023-05-13T04:08:03.372Z,5.20
2023-05-13T04:10:29.746Z,5.38
2023-05-13T04:12:56.310Z,4.88
2023-05-13T04:15:22.686Z,5.35
2023-05-13T04:17:49.088Z,5.38
2023-05-13T04:20:15.524Z,5.57
2023-05-13T04:22:41.893Z,5.30
2023-05-13T04:25:08.744Z,5.28
2023-05-13T04:27:35.142Z,5.22
2023-05-13T04:30:01.784Z,4.82
2023-05-13T04:32:28.264Z,5.25
2023-05-13T04:34:54.933Z,5.03
2023-05-13T04:37:21.317Z,5.60
2023-05-13T04:39:48.350Z,4.97
2023-05-13T04:42:15.266Z,5.43
2023-05-13T04:44:41.664Z,5.32
2023-05-13T04:47:08.202Z,5.30
2023-05-13T04:49:34.718Z,5.15
2023-05-13T04:52:03.175Z,5.22
2023-05-13T04:54:29.615Z,5.55
2023-05-13T04:56:56.382Z,4.78
2023-05-13T04:59:22.895Z,4.72
2023-05-13T05:01:49.385Z,5.38
2023-05-13T05:04:16.046Z,4.63
2023-05-13T05:06:42.497Z,4.95
2023-05-13T05:09:09.510Z,4.43
2023-05-13T05:11:35.901Z,4.53
2023-05-13T05:14:02.448Z,4.68
2023-05-13T05:16:28.874Z,4.97
2023-05-13T05:18:55.523Z,4.60
2023-05-13T05:21:22.056Z,4.57
2023-05-13T05:23:48.510Z,5.07
2023-05-13T05:26:14.881Z,4.90
2023-05-13T05:28:42.412Z,4.80
2023-05-13T05:31:09.747Z,4.85
2023-05-13T05:33:36.836Z,4.57
2023-05-13T05:36:03.548Z,5.03
2023-05-13T05:38:29.897Z,4.80
2023-05-13T05:40:56.365Z,4.50
2023-05-13T05:43:22.729Z,4.68
2023-05-13T05:45:49.222Z,4.80
2023-05-13T05:48:15.779Z,4.38
2023-05-13T05:50:42.211Z,4.40
2023-05-13T05:53:08.582Z,4.00
2023-05-13T05:55:34.966Z,4.45
2023-05-13T05:58:05.485Z,4.35
2023-05-13T06:00:33.137Z,4.35
2023-05-13T06:02:59.742Z,4.30
2023-05-13T06:05:26.290Z,4.55
2023-05-13T06:07:52.685Z,4.50
2023-05-13T06:10:19.331Z,4.20
2023-05-13T06:12:45.907Z,4.22
2023-05-13T06:15:12.406Z,4.38
2023-05-13T06:17:39.458Z,3.95
2023-05-13T06:20:06.598Z,4.00
2023-05-13T06:22:33.087Z,4.28
2023-05-13T06:24:59.492Z,3.90
2023-05-13T06:27:25.924Z,3.92
2023-05-13T06:29:52.330Z,4.28
2023-05-13T06:32:18.791Z,3.85
2023-05-13T06:34:45.905Z,4.13
2023-05-13T06:37:13.603Z,4.03
2023-05-13T06:39:41.189Z,4.13
2023-05-13T06:42:07.588Z,3.50
2023-05-13T06:44:34.018Z,4.10
2023-05-13T06:47:02.825Z,4.18
2023-05-13T06:49:29.363Z,3.90
2023-05-13T06:51:55.735Z,4.25
2023-05-13T06:54:22.121Z,3.90
2023-05-13T06:56:48.576Z,3.78
2023-05-13T06:59:15.320Z,3.72
2023-05-13T07:01:42.260Z,3.60
2023-05-13T07:04:08.752Z,3.70
2023-05-13T07:06:35.886Z,3.85
2023-05-13T07:09:07.988Z,3.63
2023-05-13T07:11:35.349Z,3.85
2023-05-13T07:14:01.842Z,4.43
2023-05-13T07:16:28.198Z,3.83
2023-05-13T07:18:54.618Z,3.80
2023-05-13T07:21:21.743Z,4.05
2023-05-13T07:23:48.100Z,3.35
2023-05-13T07:26:14.458Z,3.83
2023-05-13T07:28:40.847Z,3.50
2023-05-13T07:31:07.502Z,3.35
2023-05-13T07:33:34.031Z,3.45
2023-05-13T07:36:00.410Z,3.97
2023-05-13T07:38:26.774Z,3.58
2023-05-13T07:40:53.245Z,3.28
2023-05-13T07:43:23.776Z,3.25
2023-05-13T07:45:51.325Z,3.20
2023-05-13T07:48:18.533Z,3.35
2023-05-13T07:50:45.801Z,3.85
2023-05-13T07:53:12.352Z,3.75
2023-05-13T07:55:38.745Z,3.30
2023-05-13T07:58:06.382Z,3.10
2023-05-13T08:00:32.878Z,2.63
2023-05-13T08:03:03.537Z,2.95
2023-05-13T08:05:30.068Z,2.88
2023-05-13T08:07:56.444Z,3.10
2023-05-13T08:10:22.830Z,3.00
2023-05-13T08:12:53.591Z,3.35
2023-05-13T08:15:20.041Z,3.10
2023-05-13T08:17:46.559Z,7.63
2023-05-13T08:20:15.052Z,4.07
2023-05-13T08:22:42.899Z,4.35
2023-05-13T08:25:11.196Z,3.70
2023-05-13T08:27:37.603Z,3.65
2023-05-13T08:30:05.471Z,4.25
2023-05-13T08:32:31.900Z,3.53
2023-05-13T08:34:58.500Z,3.80
2023-05-13T08:37:24.873Z,3.40
2023-05-13T08:39:51.368Z,4.18
2023-05-13T08:42:21.663Z,4.78
2023-05-13T08:44:49.058Z,3.80
2023-05-13T08:47:53.184Z,4.03
2023-05-13T08:50:20.467Z,3.97
2023-05-13T08:52:47.117Z,3.55
2023-05-13T08:55:13.848Z,4.00
2023-05-13T08:57:40.216Z,3.40
2023-05-13T09:00:08.589Z,3.33
2023-05-13T09:02:35.012Z,3.80
2023-05-13T09:05:06.455Z,4.53
2023-05-13T09:07:34.041Z,3.78
2023-05-13T09:10:00.619Z,3.40
2023-05-13T09:12:46.682Z,3.63
2023-05-13T09:15:15.697Z,3.90
2023-05-13T09:17:43.887Z,3.78
2023-05-13T09:20:15.264Z,3.72
2023-05-13T09:23:01.673Z,3.42
2023-05-13T09:25:28.924Z,3.60
2023-05-13T09:28:00.914Z,3.40
2023-05-13T09:30:33.326Z,3.55
2023-05-13T09:33:11.481Z,3.75
2023-05-13T09:35:40.283Z,3.60
2023-05-13T09:38:15.065Z,3.90
2023-05-13T09:40:42.165Z,3.40
2023-05-13T09:43:08.675Z,3.30
2023-05-13T09:45:36.116Z,3.90
2023-05-13T09:48:03.231Z,3.50
2023-05-13T09:50:31.425Z,3.50
2023-05-13T09:52:57.833Z,3.42
2023-05-13T09:55:24.245Z,3.08
2023-05-13T09:57:53.189Z,3.30
2023-05-13T10:00:31.717Z,3.30
2023-05-13T10:02:59.022Z,3.05
2023-05-13T10:05:26.079Z,2.92
2023-05-13T10:07:52.695Z,3.70
2023-05-13T10:10:20.003Z,2.97
2023-05-13T10:12:46.941Z,3.00
2023-05-13T10:15:13.841Z,3.40
2023-05-13T10:17:41.446Z,2.95
2023-05-13T10:20:08.369Z,2.75
2023-05-13T10:22:34.861Z,3.50
2023-05-13T10:25:02.987Z,2.78
2023-05-13T10:27:33.570Z,2.90
2023-05-13T10:30:03.556Z,3.00
2023-05-13T10:32:31.534Z,2.90
2023-05-13T10:35:08.827Z,2.60
2023-05-13T10:37:50.122Z,3.00
2023-05-13T10:40:31.632Z,3.30
2023-05-13T10:43:17.093Z,2.75
2023-05-13T10:45:51.858Z,3.03
2023-05-13T10:48:18.909Z,3.15
2023-05-13T10:51:01.410Z,2.83
2023-05-13T10:53:36.104Z,3.08
2023-05-13T10:56:07.740Z,3.40
2023-05-13T10:58:39.202Z,2.90
2023-05-13T11:01:19.427Z,2.75
2023-05-13T11:03:54.230Z,3.13
2023-05-13T11:06:23.744Z,3.17
2023-05-13T11:08:53.588Z,2.63
2023-05-13T11:11:22.354Z,2.50
2023-05-13T11:13:52.394Z,2.72
2023-05-13T11:16:18.836Z,2.75
2023-05-13T11:18:45.316Z,2.90
2023-05-13T11:21:11.735Z,2.83
2023-05-13T11:23:56.991Z,2.80
2023-05-13T11:26:23.503Z,2.90
2023-05-13T11:28:54.063Z,3.08
2023-05-13T11:31:21.504Z,2.50
2023-05-13T11:34:09.681Z,2.90
2023-05-13T11:36:37.861Z,2.88
2023-05-13T11:39:14.621Z,2.50
2023-05-13T11:41:43.263Z,2.80
2023-05-13T11:44:11.274Z,3.10
2023-05-13T11:46:37.640Z,2.53
2023-05-13T11:49:06.494Z,2.60
2023-05-13T11:51:34.211Z,3.00
2023-05-13T11:54:03.075Z,2.83
2023-05-13T11:56:30.092Z,2.58
2023-05-13T11:59:14.242Z,2.88
2023-05-13T12:01:40.605Z,21.55
2023-05-13T12:04:07.869Z,16.13
2023-05-13T12:06:35.324Z,3.20
2023-05-13T12:09:06.688Z,3.78
2023-05-13T12:11:33.882Z,4.70
2023-05-13T12:14:00.992Z,2.83
2023-05-13T12:16:27.510Z,2.95
2023-05-13T12:19:04.621Z,3.40
2023-05-13T12:21:32.357Z,3.05
2023-05-13T12:23:58.956Z,2.80
2023-05-13T12:26:25.942Z,2.85
2023-05-13T12:28:59.569Z,3.00
2023-05-13T12:31:26.358Z,2.88
2023-05-13T12:33:53.084Z,2.78
2023-05-13T12:36:23.165Z,2.67
2023-05-13T12:39:07.574Z,2.88
2023-05-13T12:41:36.412Z,5.70
2023-05-13T12:44:11.349Z,3.83
2023-05-13T12:46:37.980Z,3.08
2023-05-13T12:49:05.836Z,3.10
2023-05-13T12:51:35.121Z,3.40
2023-05-13T12:54:01.685Z,2.72
2023-05-13T12:56:28.065Z,2.65
2023-05-13T12:58:54.470Z,2.80
2023-05-13T13:01:21.467Z,3.00
2023-05-13T13:03:48.070Z,3.10
2023-05-13T13:06:14.951Z,3.15
2023-05-13T13:08:41.385Z,3.00
2023-05-13T13:11:07.808Z,3.15
2023-05-13T13:13:34.570Z,2.67
2023-05-13T13:16:02.036Z,3.20
2023-05-13T13:18:28.546Z,3.10
2023-05-13T13:20:55.278Z,2.80
2023-05-13T13:23:21.846Z,3.00
2023-05-13T13:25:48.303Z,2.90
2023-05-13T13:28:14.704Z,2.60
2023-05-13T13:30:46.297Z,2.85
2023-05-13T13:33:14.890Z,3.33
2023-05-13T13:35:43.482Z,3.25
2023-05-13T13:38:10.034Z,2.63
2023-05-13T13:40:36.739Z,3.08
2023-05-13T13:43:04.102Z,2.80
2023-05-13T13:45:31.251Z,2.85
2023-05-13T13:47:58.207Z,2.60
2023-05-13T13:50:24.759Z,2.53
2023-05-13T13:52:52.413Z,3.00
2023-05-13T13:55:22.632Z,3.00
2023-05-13T13:57:49.092Z,2.92
2023-05-13T14:00:16.617Z,2.83
2023-05-13T14:02:43.796Z,3.03
2023-05-13T14:05:11.586Z,2.88
2023-05-13T14:07:38.106Z,2.92
2023-05-13T14:10:05.549Z,2.95
2023-05-13T14:12:31.972Z,2.72
2023-05-13T14:14:58.639Z,2.90
2023-05-13T14:17:25.080Z,2.60
2023-05-13T14:19:51.784Z,2.72
2023-05-13T14:22:18.334Z,2.67
2023-05-13T14:24:44.706Z,3.10
2023-05-13T14:27:11.086Z,2.97
2023-05-13T14:29:37.663Z,2.95
2023-05-13T14:32:04.447Z,2.80
2023-05-13T14:34:32.895Z,3.30
2023-05-13T14:36:59.338Z,2.88
2023-05-13T14:39:25.743Z,2.80
2023-05-13T14:41:52.154Z,2.60
2023-05-13T14:44:18.530Z,5.13
2023-05-13T14:46:45.188Z,9.20
2023-05-13T14:49:11.606Z,8.38
2023-05-13T14:51:37.970Z,4.30
2023-05-13T14:54:04.468Z,8.02
2023-05-13T14:56:30.840Z,3.28
2023-05-13T14:58:57.794Z,3.67
2023-05-13T15:01:24.284Z,4.28
2023-05-13T15:03:50.690Z,3.33
2023-05-13T15:06:17.089Z,3.53
2023-05-13T15:08:43.536Z,2.58
2023-05-13T15:11:09.916Z,3.30
2023-05-13T15:13:37.165Z,3.30
2023-05-13T15:16:04.414Z,3.33
2023-05-13T15:18:31.379Z,3.60
2023-05-13T15:20:57.913Z,4.07
2023-05-13T15:23:24.272Z,3.13
2023-05-13T15:25:51.227Z,3.00
2023-05-13T15:28:17.592Z,3.28
2023-05-13T15:30:43.979Z,4.00
2023-05-13T15:33:10.390Z,3.67
2023-05-13T15:35:36.810Z,3.45
2023-05-13T15:38:03.418Z,4.82
2023-05-13T15:40:29.955Z,4.35
2023-05-13T15:42:56.461Z,3.33
2023-05-13T15:45:22.848Z,3.58
2023-05-13T15:47:50.463Z,4.28
2023-05-13T15:50:16.957Z,3.03
2023-05-13T15:52:43.415Z,3.00
2023-05-13T15:55:09.805Z,3.08
2023-05-13T15:57:36.312Z,3.33
2023-05-13T16:00:02.693Z,3.10
2023-05-13T16:02:36.385Z,3.03
2023-05-13T16:05:02.994Z,3.42
2023-05-13T16:07:29.379Z,3.45
2023-05-13T16:09:56.011Z,3.50
2023-05-13T16:12:22.385Z,3.75
2023-05-13T16:14:48.827Z,5.00
2023-05-13T16:17:16.106Z,4.32
2023-05-13T16:19:42.476Z,4.93
2023-05-13T16:22:44.436Z,4.85
2023-05-13T16:25:11.475Z,4.70
2023-05-13T16:27:39.317Z,4.75
2023-05-13T16:30:07.466Z,4.70
2023-05-13T16:32:34.839Z,4.55
2023-05-13T16:35:01.632Z,4.30
2023-05-13T16:37:28.366Z,4.53
2023-05-13T16:39:54.783Z,4.45
2023-05-13T16:42:21.166Z,4.47
2023-05-13T16:44:47.748Z,4.15
2023-05-13T16:47:14.428Z,4.00
2023-05-13T16:49:41.079Z,4.10
2023-05-13T16:52:07.721Z,4.30
2023-05-13T16:54:34.237Z,4.25
2023-05-13T16:57:00.709Z,4.20
2023-05-13T16:59:27.698Z,4.03
2023-05-13T17:01:54.769Z,3.75
2023-05-13T17:04:21.483Z,3.70
2023-05-13T17:06:47.923Z,3.60
2023-05-13T17:09:14.557Z,3.90
2023-05-13T17:11:41.102Z,4.35
2023-05-13T17:14:07.633Z,4.78
2023-05-13T17:16:34.258Z,3.63
2023-05-13T17:19:00.800Z,4.20
2023-05-13T17:21:27.271Z,4.18
2023-05-13T17:23:54.084Z,4.10
2023-05-13T17:26:21.951Z,4.00
2023-05-13T17:28:49.709Z,4.20
2023-05-13T17:31:16.374Z,4.55
2023-05-13T17:33:42.958Z,4.22
2023-05-13T17:36:09.761Z,7.70
2023-05-13T17:38:37.062Z,4.50
2023-05-13T17:41:03.656Z,4.30
2023-05-13T17:43:30.129Z,3.97
2023-05-13T17:45:56.874Z,3.92
2023-05-13T17:48:23.470Z,4.35
2023-05-13T17:50:49.979Z,5.28
2023-05-13T17:53:16.410Z,5.97
2023-05-13T17:55:42.942Z,5.30
2023-05-13T17:58:09.339Z,4.18
2023-05-13T18:00:35.886Z,4.40
2023-05-13T18:03:02.320Z,4.47
2023-05-13T18:05:28.831Z,4.82
2023-05-13T18:07:56.761Z,4.10
2023-05-13T18:10:23.592Z,3.53
2023-05-13T18:12:51.783Z,3.80
2023-05-13T18:15:18.514Z,4.38
2023-05-13T18:17:45.186Z,4.30
2023-05-13T18:20:12.458Z,5.13
2023-05-13T18:22:39.088Z,4.30
2023-05-13T18:25:07.266Z,3.80
2023-05-13T18:27:34.385Z,4.45
2023-05-13T18:30:01.158Z,5.25
2023-05-13T18:32:27.555Z,5.88
2023-05-13T18:34:53.986Z,4.70
2023-05-13T18:37:20.377Z,4.10
2023-05-13T18:39:46.832Z,4.78
2023-05-13T18:42:13.240Z,4.25
2023-05-13T18:44:39.674Z,5.18
2023-05-13T18:47:06.535Z,4.97
2023-05-13T18:49:33.078Z,5.00
2023-05-13T18:52:00.413Z,4.60
2023-05-13T18:54:29.369Z,5.80
2023-05-13T18:56:59.119Z,8.05
2023-05-13T18:59:25.836Z,5.82
2023-05-13T19:01:52.470Z,6.30
2023-05-13T19:04:19.225Z,4.63
2023-05-13T19:06:45.930Z,4.88
2023-05-13T19:09:12.334Z,5.20
2023-05-13T19:11:38.837Z,4.60
2023-05-13T19:14:05.574Z,5.68
2023-05-13T19:16:32.196Z,5.93
2023-05-13T19:18:58.792Z,4.90
2023-05-13T19:21:25.442Z,5.25
2023-05-13T19:23:51.882Z,4.82
2023-05-13T19:26:18.613Z,4.57
2023-05-13T19:28:45.865Z,4.45
2023-05-13T19:31:12.379Z,4.75
2023-05-13T19:33:42.916Z,4.88
2023-05-13T19:36:10.721Z,5.00
2023-05-13T19:38:37.080Z,4.80
2023-05-13T19:41:03.680Z,5.20
2023-05-13T19:43:30.051Z,5.30
2023-05-13T19:45:57.759Z,4.78
2023-05-13T19:48:24.125Z,5.00
2023-05-13T19:50:53.553Z,4.90
2023-05-13T19:53:21.631Z,5.03
2023-05-13T19:55:48.029Z,4.97
2023-05-13T19:58:14.452Z,5.32
2023-05-13T20:00:40.842Z,5.82
2023-05-13T20:03:07.442Z,5.18
2023-05-13T20:05:33.890Z,6.55
2023-05-13T20:08:00.398Z,6.25
2023-05-13T20:10:26.771Z,5.40
2023-05-13T20:12:53.260Z,5.60
2023-05-13T20:15:19.724Z,6.53
2023-05-13T20:17:46.190Z,5.65
2023-05-13T20:20:12.624Z,5.85
2023-05-13T20:22:39.060Z,5.65
2023-05-13T20:25:05.783Z,6.10
2023-05-13T20:27:32.171Z,6.38
2023-05-13T20:30:00.116Z,6.68
2023-05-13T20:32:26.583Z,6.63
2023-05-13T20:34:54.339Z,6.82
2023-05-13T20:37:23.943Z,6.60
2023-05-13T20:39:50.726Z,6.32
2023-05-13T20:42:17.267Z,6.22
2023-05-13T20:44:45.839Z,6.70
2023-05-13T20:47:12.250Z,6.55
2023-05-13T20:49:39.779Z,6.55
2023-05-13T20:52:08.491Z,7.47
2023-05-13T20:54:36.370Z,6.43
2023-05-13T20:57:03.445Z,6.88
2023-05-13T20:59:30.762Z,6.78
2023-05-13T21:01:57.529Z,7.28
2023-05-13T21:04:25.480Z,7.28
2023-05-13T21:06:52.465Z,7.22
2023-05-13T21:09:18.860Z,7.72
2023-05-13T21:11:45.788Z,7.32
2023-05-13T21:14:12.233Z,7.05
2023-05-13T21:16:38.606Z,6.93
2023-05-13T21:19:05.148Z,8.05
2023-05-13T21:21:32.085Z,9.23
2023-05-13T21:23:58.515Z,7.25
2023-05-13T21:26:25.183Z,7.70
2023-05-13T21:28:51.624Z,6.80
2023-05-13T21:31:18.014Z,7.20
2023-05-13T21:33:44.428Z,7.78
2023-05-13T21:36:10.824Z,7.68
2023-05-13T21:38:37.173Z,8.02
2023-05-13T21:41:03.600Z,7.72
2023-05-13T21:43:30.084Z,7.65
2023-05-13T21:45:56.455Z,8.07
2023-05-13T21:48:22.917Z,8.68
2023-05-13T21:50:49.330Z,7.65
2023-05-13T21:53:15.708Z,7.85
2023-05-13T21:55:42.096Z,7.78
2023-05-13T21:58:08.499Z,6.97
2023-05-13T22:00:34.908Z,8.20
2023-05-13T22:03:01.730Z,7.80
2023-05-13T22:05:28.387Z,8.98
2023-05-13T22:07:55.093Z,8.82
2023-05-13T22:10:21.725Z,8.40
2023-05-13T22:12:48.421Z,7.93
2023-05-13T22:15:14.856Z,8.25
2023-05-13T22:17:41.400Z,8.20
2023-05-13T22:20:08.306Z,7.10
2023-05-13T22:22:34.713Z,7.90
2023-05-13T22:25:01.105Z,7.72
2023-05-13T22:27:27.472Z,7.32
2023-05-13T22:29:53.855Z,6.85
2023-05-13T22:32:20.256Z,7.57
2023-05-13T22:34:46.655Z,7.25
2023-05-13T22:37:13.024Z,6.93
2023-05-13T22:39:39.418Z,7.00
2023-05-13T22:42:05.988Z,6.85
2023-05-13T22:44:32.394Z,7.20
2023-05-13T22:46:58.795Z,7.15
2023-05-13T22:49:25.290Z,7.55
2023-05-13T22:51:51.905Z,7.80
2023-05-13T22:54:18.281Z,7.32
2023-05-13T22:56:44.693Z,7.50
2023-05-13T22:59:11.711Z,7.50
2023-05-13T23:01:38.187Z,7.40
2023-05-13T23:04:05.700Z,6.70
2023-05-13T23:06:32.249Z,7.63
2023-05-13T23:08:58.667Z,7.55
2023-05-13T23:11:25.068Z,7.82
2023-05-13T23:13:51.461Z,6.93
2023-05-13T23:16:19.093Z,7.20
2023-05-13T23:18:45.686Z,7.55
2023-05-13T23:21:12.145Z,7.07
2023-05-13T23:23:38.497Z,7.90
2023-05-13T23:26:05.813Z,7.78
2023-05-13T23:28:32.902Z,7.50
2023-05-13T23:30:59.297Z,9.70
2023-05-13T23:33:25.678Z,8.35
2023-05-13T23:35:56.208Z,8.00
2023-05-13T23:38:23.081Z,8.10
2023-05-13T23:40:49.452Z,8.30
2023-05-13T23:43:16.151Z,7.68
2023-05-13T23:45:42.612Z,7.45
2023-05-13T23:48:09.217Z,8.35
2023-05-13T23:50:35.672Z,8.10
2023-05-13T23:53:02.036Z,7.93
2023-05-13T23:55:28.400Z,7.80
2023-05-13T23:57:55.088Z,8.25
